sensor_id;sensor_type;location;lat;lon;timestamp;P1;durP1;ratioP1;P2;durP2;ratioP2
40254;SDS011;25973;52.368;4.940;2022-11-12T00:00:36;16.15;;;6.70;;
40254;SDS011;25973;52.368;4.940;2022-11-12T00:03:02;15.15;;;5.90;;
40254;SDS011;25973;52.368;4.940;2022-11-12T00:05:28;11.10;;;5.68;;
40254;SDS011;25973;52.368;4.940;2022-11-12T00:07:54;14.25;;;6.80;;
40254;SDS011;25973;52.368;4.940;2022-11-12T00:10:19;12.48;;;5.10;;
40254;SDS011;25973;52.368;4.940;2022-11-12T00:12:45;16.25;;;6.05;;
40254;SDS011;25973;52.368;4.940;2022-11-12T00:15:11;11.80;;;5.93;;
40254;SDS011;25973;52.368;4.940;2022-11-12T00:17:37;14.43;;;6.35;;
40254;SDS011;25973;52.368;4.940;2022-11-12T00:20:03;17.05;;;6.07;;
40254;SDS011;25973;52.368;4.940;2022-11-12T00:22:29;13.68;;;5.93;;
40254;SDS011;25973;52.368;4.940;2022-11-12T00:24:54;11.82;;;5.90;;
40254;SDS011;25973;52.368;4.940;2022-11-12T00:27:20;10.38;;;5.40;;
40254;SDS011;25973;52.368;4.940;2022-11-12T00:29:46;14.00;;;6.43;;
40254;SDS011;25973;52.368;4.940;2022-11-12T00:32:12;13.60;;;5.68;;
40254;SDS011;25973;52.368;4.940;2022-11-12T00:34:37;13.88;;;5.15;;
40254;SDS011;25973;52.368;4.940;2022-11-12T00:37:03;11.35;;;5.63;;
40254;SDS011;25973;52.368;4.940;2022-11-12T00:39:29;11.02;;;5.70;;
40254;SDS011;25973;52.368;4.940;2022-11-12T00:41:54;11.55;;;6.63;;
40254;SDS011;25973;52.368;4.940;2022-11-12T00:44:20;18.02;;;6.88;;
40254;SDS011;25973;52.368;4.940;2022-11-12T00:46:46;15.77;;;6.32;;
40254;SDS011;25973;52.368;4.940;2022-11-12T00:49:12;12.02;;;6.28;;
40254;SDS011;25973;52.368;4.940;2022-11-12T00:51:38;10.85;;;5.55;;
40254;SDS011;25973;52.368;4.940;2022-11-12T00:54:03;13.15;;;6.47;;
40254;SDS011;25973;52.368;4.940;2022-11-12T00:56:29;15.52;;;5.45;;
40254;SDS011;25973;52.368;4.940;2022-11-12T00:58:56;10.13;;;6.47;;
40254;SDS011;25973;52.368;4.940;2022-11-12T01:01:22;15.25;;;6.47;;
40254;SDS011;25973;52.368;4.940;2022-11-12T01:03:48;13.00;;;6.00;;
40254;SDS011;25973;52.368;4.940;2022-11-12T01:06:14;11.38;;;6.40;;
40254;SDS011;25973;52.368;4.940;2022-11-12T01:08:43;9.98;;;6.00;;
40254;SDS011;25973;52.368;4.940;2022-11-12T01:11:12;13.23;;;6.15;;
40254;SDS011;25973;52.368;4.940;2022-11-12T01:13:46;14.50;;;6.82;;
40254;SDS011;25973;52.368;4.940;2022-11-12T01:16:20;13.73;;;7.32;;
40254;SDS011;25973;52.368;4.940;2022-11-12T01:18:50;15.43;;;7.10;;
40254;SDS011;25973;52.368;4.940;2022-11-12T01:23:45;15.07;;;7.57;;
40254;SDS011;25973;52.368;4.940;2022-11-12T01:26:11;19.90;;;8.85;;
40254;SDS011;25973;52.368;4.940;2022-11-12T01:28:39;15.57;;;8.07;;
40254;SDS011;25973;52.368;4.940;2022-11-12T01:31:09;19.30;;;9.18;;
40254;SDS011;25973;52.368;4.940;2022-11-12T01:33:43;17.98;;;8.43;;
40254;SDS011;25973;52.368;4.940;2022-11-12T01:36:10;22.52;;;9.85;;
40254;SDS011;25973;52.368;4.940;2022-11-12T01:38:37;25.42;;;10.77;;
40254;SDS011;25973;52.368;4.940;2022-11-12T01:41:04;21.92;;;10.95;;
40254;SDS011;25973;52.368;4.940;2022-11-12T01:43:31;18.98;;;10.25;;
40254;SDS011;25973;52.368;4.940;2022-11-12T01:45:58;25.98;;;11.52;;
40254;SDS011;25973;52.368;4.940;2022-11-12T01:48:32;25.63;;;12.55;;
40254;SDS011;25973;52.368;4.940;2022-11-12T01:51:16;27.50;;;12.77;;
40254;SDS011;25973;52.368;4.940;2022-11-12T01:53:46;31.73;;;14.90;;
40254;SDS011;25973;52.368;4.940;2022-11-12T01:56:15;40.95;;;15.82;;
40254;SDS011;25973;52.368;4.940;2022-11-12T01:58:42;32.78;;;15.75;;
40254;SDS011;25973;52.368;4.940;2022-11-12T02:01:12;34.50;;;16.40;;
40254;SDS011;25973;52.368;4.940;2022-11-12T02:03:37;31.77;;;14.18;;
40254;SDS011;25973;52.368;4.940;2022-11-12T02:06:07;35.17;;;15.52;;
40254;SDS011;25973;52.368;4.940;2022-11-12T02:08:35;31.23;;;14.65;;
40254;SDS011;25973;52.368;4.940;2022-11-12T02:11:09;40.45;;;15.43;;
40254;SDS011;25973;52.368;4.940;2022-11-12T02:13:35;31.50;;;15.13;;
40254;SDS011;25973;52.368;4.940;2022-11-12T02:16:19;34.63;;;15.55;;
40254;SDS011;25973;52.368;4.940;2022-11-12T02:18:45;33.38;;;15.38;;
40254;SDS011;25973;52.368;4.940;2022-11-12T02:21:10;31.85;;;15.30;;
40254;SDS011;25973;52.368;4.940;2022-11-12T02:23:43;39.67;;;14.65;;
40254;SDS011;25973;52.368;4.940;2022-11-12T02:26:09;35.75;;;16.40;;
40254;SDS011;25973;52.368;4.940;2022-11-12T02:28:35;33.97;;;15.60;;
40254;SDS011;25973;52.368;4.940;2022-11-12T02:31:00;31.33;;;14.70;;
40254;SDS011;25973;52.368;4.940;2022-11-12T02:33:26;36.35;;;15.07;;
40254;SDS011;25973;52.368;4.940;2022-11-12T02:35:51;32.97;;;15.30;;
40254;SDS011;25973;52.368;4.940;2022-11-12T02:38:17;30.50;;;15.10;;
40254;SDS011;25973;52.368;4.940;2022-11-12T02:40:42;35.45;;;13.50;;
40254;SDS011;25973;52.368;4.940;2022-11-12T02:43:08;33.75;;;15.63;;
40254;SDS011;25973;52.368;4.940;2022-11-12T02:45:34;34.83;;;16.00;;
40254;SDS011;25973;52.368;4.940;2022-11-12T02:47:59;33.60;;;15.07;;
40254;SDS011;25973;52.368;4.940;2022-11-12T02:50:25;34.10;;;15.52;;
40254;SDS011;25973;52.368;4.940;2022-11-12T02:52:51;35.22;;;14.32;;
40254;SDS011;25973;52.368;4.940;2022-11-12T02:55:16;31.42;;;15.00;;
40254;SDS011;25973;52.368;4.940;2022-11-12T02:57:42;30.80;;;15.68;;
40254;SDS011;25973;52.368;4.940;2022-11-12T03:00:09;38.58;;;16.85;;
40254;SDS011;25973;52.368;4.940;2022-11-12T03:02:36;32.17;;;15.95;;
40254;SDS011;25973;52.368;4.940;2022-11-12T03:05:22;36.67;;;15.85;;
40254;SDS011;25973;52.368;4.940;2022-11-12T03:07:49;32.35;;;15.15;;
40254;SDS011;25973;52.368;4.940;2022-11-12T03:10:15;29.73;;;15.18;;
40254;SDS011;25973;52.368;4.940;2022-11-12T03:12:40;31.33;;;16.65;;
40254;SDS011;25973;52.368;4.940;2022-11-12T03:15:06;34.20;;;16.40;;
40254;SDS011;25973;52.368;4.940;2022-11-12T03:17:35;33.92;;;15.40;;
40254;SDS011;25973;52.368;4.940;2022-11-12T03:22:29;36.35;;;15.60;;
40254;SDS011;25973;52.368;4.940;2022-11-12T03:24:54;38.95;;;16.55;;
40254;SDS011;25973;52.368;4.940;2022-11-12T03:27:20;34.03;;;16.80;;
40254;SDS011;25973;52.368;4.940;2022-11-12T03:29:46;33.90;;;16.83;;
40254;SDS011;25973;52.368;4.940;2022-11-12T03:32:11;35.63;;;17.83;;
40254;SDS011;25973;52.368;4.940;2022-11-12T03:34:37;39.05;;;16.33;;
40254;SDS011;25973;52.368;4.940;2022-11-12T03:37:02;46.97;;;17.52;;
40254;SDS011;25973;52.368;4.940;2022-11-12T03:39:28;37.88;;;18.42;;
40254;SDS011;25973;52.368;4.940;2022-11-12T03:41:54;36.88;;;18.08;;
40254;SDS011;25973;52.368;4.940;2022-11-12T03:44:19;42.55;;;18.83;;
40254;SDS011;25973;52.368;4.940;2022-11-12T03:46:45;37.97;;;17.23;;
40254;SDS011;25973;52.368;4.940;2022-11-12T03:49:11;39.40;;;19.10;;
40254;SDS011;25973;52.368;4.940;2022-11-12T03:51:36;42.03;;;19.27;;
40254;SDS011;25973;52.368;4.940;2022-11-12T03:54:02;43.00;;;19.48;;
40254;SDS011;25973;52.368;4.940;2022-11-12T03:56:28;45.05;;;18.88;;
40254;SDS011;25973;52.368;4.940;2022-11-12T03:58:54;40.95;;;18.95;;
40254;SDS011;25973;52.368;4.940;2022-11-12T04:01:19;44.53;;;19.25;;
40254;SDS011;25973;52.368;4.940;2022-11-12T04:03:45;43.15;;;19.83;;
40254;SDS011;25973;52.368;4.940;2022-11-12T04:06:10;46.40;;;20.38;;
40254;SDS011;25973;52.368;4.940;2022-11-12T04:08:55;53.33;;;21.15;;
40254;SDS011;25973;52.368;4.940;2022-11-12T04:11:20;46.67;;;20.20;;
40254;SDS011;25973;52.368;4.940;2022-11-12T04:13:46;61.40;;;22.83;;
40254;SDS011;25973;52.368;4.940;2022-11-12T04:16:15;54.58;;;21.27;;
40254;SDS011;25973;52.368;4.940;2022-11-12T04:19:01;55.60;;;23.95;;
40254;SDS011;25973;52.368;4.940;2022-11-12T04:21:48;67.40;;;24.60;;
40254;SDS011;25973;52.368;4.940;2022-11-12T04:27:17;62.90;;;23.20;;
40254;SDS011;25973;52.368;4.940;2022-11-12T04:29:45;64.70;;;26.17;;
40254;SDS011;25973;52.368;4.940;2022-11-12T04:32:31;63.83;;;25.73;;
40254;SDS011;25973;52.368;4.940;2022-11-12T04:34:58;62.80;;;25.80;;
40254;SDS011;25973;52.368;4.940;2022-11-12T04:37:25;72.55;;;28.77;;
40254;SDS011;25973;52.368;4.940;2022-11-12T04:39:51;67.78;;;24.98;;
40254;SDS011;25973;52.368;4.940;2022-11-12T04:42:17;57.78;;;23.83;;
40254;SDS011;25973;52.368;4.940;2022-11-12T04:45:02;67.10;;;26.13;;
40254;SDS011;25973;52.368;4.940;2022-11-12T04:49:58;47.05;;;21.13;;
40254;SDS011;25973;52.368;4.940;2022-11-12T04:52:25;54.47;;;21.40;;
40254;SDS011;25973;52.368;4.940;2022-11-12T04:54:52;49.78;;;21.38;;
40254;SDS011;25973;52.368;4.940;2022-11-12T04:57:18;50.22;;;19.08;;
40254;SDS011;25973;52.368;4.940;2022-11-12T04:59:44;52.42;;;21.08;;
40254;SDS011;25973;52.368;4.940;2022-11-12T05:02:10;49.75;;;18.52;;
40254;SDS011;25973;52.368;4.940;2022-11-12T05:04:36;42.78;;;17.55;;
40254;SDS011;25973;52.368;4.940;2022-11-12T05:07:01;39.45;;;16.50;;
40254;SDS011;25973;52.368;4.940;2022-11-12T05:09:27;36.30;;;15.65;;
40254;SDS011;25973;52.368;4.940;2022-11-12T05:11:53;35.13;;;15.98;;
40254;SDS011;25973;52.368;4.940;2022-11-12T05:14:20;42.92;;;16.48;;
40254;SDS011;25973;52.368;4.940;2022-11-12T05:16:46;37.47;;;15.82;;
40254;SDS011;25973;52.368;4.940;2022-11-12T05:19:12;41.72;;;17.15;;
40254;SDS011;25973;52.368;4.940;2022-11-12T05:21:38;36.72;;;16.52;;
40254;SDS011;25973;52.368;4.940;2022-11-12T05:24:23;41.22;;;16.10;;
40254;SDS011;25973;52.368;4.940;2022-11-12T05:26:49;38.67;;;16.67;;
40254;SDS011;25973;52.368;4.940;2022-11-12T05:29:18;43.70;;;16.35;;
40254;SDS011;25973;52.368;4.940;2022-11-12T05:31:44;36.40;;;15.48;;
40254;SDS011;25973;52.368;4.940;2022-11-12T05:34:10;35.05;;;16.42;;
40254;SDS011;25973;52.368;4.940;2022-11-12T05:36:36;36.40;;;15.50;;
40254;SDS011;25973;52.368;4.940;2022-11-12T05:39:02;34.33;;;14.23;;
40254;SDS011;25973;52.368;4.940;2022-11-12T05:41:28;46.47;;;15.75;;
40254;SDS011;25973;52.368;4.940;2022-11-12T05:43:53;40.65;;;15.88;;
40254;SDS011;25973;52.368;4.940;2022-11-12T05:46:19;34.00;;;15.50;;
40254;SDS011;25973;52.368;4.940;2022-11-12T05:48:45;36.60;;;16.08;;
40254;SDS011;25973;52.368;4.940;2022-11-12T05:51:10;37.58;;;15.95;;
40254;SDS011;25973;52.368;4.940;2022-11-12T05:53:40;41.65;;;16.90;;
40254;SDS011;25973;52.368;4.940;2022-11-12T05:56:07;43.35;;;15.57;;
40254;SDS011;25973;52.368;4.940;2022-11-12T05:58:34;38.63;;;14.90;;
40254;SDS011;25973;52.368;4.940;2022-11-12T06:01:03;42.45;;;14.18;;
40254;SDS011;25973;52.368;4.940;2022-11-12T06:03:29;33.30;;;14.73;;
40254;SDS011;25973;52.368;4.940;2022-11-12T06:05:55;33.83;;;14.05;;
40254;SDS011;25973;52.368;4.940;2022-11-12T06:08:21;35.47;;;15.38;;
40254;SDS011;25973;52.368;4.940;2022-11-12T06:10:48;42.60;;;16.30;;
40254;SDS011;25973;52.368;4.940;2022-11-12T06:13:14;36.40;;;16.08;;
40254;SDS011;25973;52.368;4.940;2022-11-12T06:15:40;38.75;;;16.70;;
40254;SDS011;25973;52.368;4.940;2022-11-12T06:18:05;41.53;;;16.70;;
40254;SDS011;25973;52.368;4.940;2022-11-12T06:20:31;42.30;;;15.95;;
40254;SDS011;25973;52.368;4.940;2022-11-12T06:22:57;53.72;;;17.58;;
40254;SDS011;25973;52.368;4.940;2022-11-12T06:25:23;36.20;;;16.73;;
40254;SDS011;25973;52.368;4.940;2022-11-12T06:27:48;43.50;;;15.20;;
40254;SDS011;25973;52.368;4.940;2022-11-12T06:30:14;41.83;;;17.30;;
40254;SDS011;25973;52.368;4.940;2022-11-12T06:32:39;41.13;;;16.50;;
40254;SDS011;25973;52.368;4.940;2022-11-12T06:35:05;55.45;;;15.45;;
40254;SDS011;25973;52.368;4.940;2022-11-12T06:37:31;46.08;;;16.67;;
40254;SDS011;25973;52.368;4.940;2022-11-12T06:39:56;40.80;;;17.25;;
40254;SDS011;25973;52.368;4.940;2022-11-12T06:42:22;42.53;;;16.15;;
40254;SDS011;25973;52.368;4.940;2022-11-12T06:44:47;58.60;;;17.27;;
40254;SDS011;25973;52.368;4.940;2022-11-12T06:47:13;46.55;;;16.95;;
40254;SDS011;25973;52.368;4.940;2022-11-12T06:49:39;36.75;;;15.88;;
40254;SDS011;25973;52.368;4.940;2022-11-12T06:52:04;42.67;;;15.73;;
40254;SDS011;25973;52.368;4.940;2022-11-12T06:54:30;38.58;;;14.73;;
40254;SDS011;25973;52.368;4.940;2022-11-12T06:56:56;35.35;;;13.30;;
40254;SDS011;25973;52.368;4.940;2022-11-12T06:59:21;36.75;;;13.70;;
40254;SDS011;25973;52.368;4.940;2022-11-12T07:01:47;28.40;;;13.05;;
40254;SDS011;25973;52.368;4.940;2022-11-12T07:04:12;40.28;;;16.10;;
40254;SDS011;25973;52.368;4.940;2022-11-12T07:06:38;40.67;;;15.43;;
40254;SDS011;25973;52.368;4.940;2022-11-12T07:09:04;46.45;;;17.40;;
40254;SDS011;25973;52.368;4.940;2022-11-12T07:11:30;38.45;;;12.88;;
40254;SDS011;25973;52.368;4.940;2022-11-12T07:13:55;43.63;;;15.98;;
40254;SDS011;25973;52.368;4.940;2022-11-12T07:16:24;40.42;;;13.02;;
40254;SDS011;25973;52.368;4.940;2022-11-12T07:18:50;38.00;;;12.85;;
40254;SDS011;25973;52.368;4.940;2022-11-12T07:21:18;30.25;;;12.20;;
40254;SDS011;25973;52.368;4.940;2022-11-12T07:23:45;30.23;;;12.88;;
40254;SDS011;25973;52.368;4.940;2022-11-12T07:26:12;34.88;;;13.27;;
40254;SDS011;25973;52.368;4.940;2022-11-12T07:28:39;32.58;;;12.98;;
40254;SDS011;25973;52.368;4.940;2022-11-12T07:31:06;30.50;;;12.32;;
40254;SDS011;25973;52.368;4.940;2022-11-12T07:33:34;30.98;;;13.27;;
40254;SDS011;25973;52.368;4.940;2022-11-12T07:36:07;30.75;;;12.85;;
40254;SDS011;25973;52.368;4.940;2022-11-12T07:38:35;31.25;;;13.35;;
40254;SDS011;25973;52.368;4.940;2022-11-12T07:41:03;31.35;;;13.63;;
40254;SDS011;25973;52.368;4.940;2022-11-12T07:43:36;26.45;;;11.75;;
40254;SDS011;25973;52.368;4.940;2022-11-12T07:46:07;31.77;;;12.90;;
40254;SDS011;25973;52.368;4.940;2022-11-12T07:48:35;41.67;;;18.98;;
40254;SDS011;25973;52.368;4.940;2022-11-12T07:51:02;33.85;;;14.88;;
40254;SDS011;25973;52.368;4.940;2022-11-12T07:53:29;23.45;;;12.10;;
40254;SDS011;25973;52.368;4.940;2022-11-12T07:55:55;27.00;;;13.20;;
40254;SDS011;25973;52.368;4.940;2022-11-12T07:58:22;31.77;;;13.95;;
40254;SDS011;25973;52.368;4.940;2022-11-12T08:00:49;26.92;;;11.75;;
40254;SDS011;25973;52.368;4.940;2022-11-12T08:03:15;25.27;;;12.80;;
40254;SDS011;25973;52.368;4.940;2022-11-12T08:05:40;20.42;;;11.85;;
40254;SDS011;25973;52.368;4.940;2022-11-12T08:08:06;21.88;;;11.05;;
40254;SDS011;25973;52.368;4.940;2022-11-12T08:10:32;22.30;;;12.50;;
40254;SDS011;25973;52.368;4.940;2022-11-12T08:12:57;25.17;;;11.90;;
40254;SDS011;25973;52.368;4.940;2022-11-12T08:15:23;23.05;;;11.82;;
40254;SDS011;25973;52.368;4.940;2022-11-12T08:17:49;23.83;;;11.43;;
40254;SDS011;25973;52.368;4.940;2022-11-12T08:20:15;24.83;;;11.40;;
40254;SDS011;25973;52.368;4.940;2022-11-12T08:22:41;29.38;;;12.18;;
40254;SDS011;25973;52.368;4.940;2022-11-12T08:25:06;25.20;;;11.95;;
40254;SDS011;25973;52.368;4.940;2022-11-12T08:27:32;26.05;;;10.93;;
40254;SDS011;25973;52.368;4.940;2022-11-12T08:29:58;22.00;;;10.38;;
40254;SDS011;25973;52.368;4.940;2022-11-12T08:32:24;20.80;;;10.45;;
40254;SDS011;25973;52.368;4.940;2022-11-12T08:34:49;21.45;;;9.98;;
40254;SDS011;25973;52.368;4.940;2022-11-12T08:37:21;21.60;;;11.35;;
40254;SDS011;25973;52.368;4.940;2022-11-12T08:39:46;31.27;;;14.00;;
40254;SDS011;25973;52.368;4.940;2022-11-12T08:42:18;20.50;;;10.60;;
40254;SDS011;25973;52.368;4.940;2022-11-12T08:44:46;21.30;;;10.02;;
40254;SDS011;25973;52.368;4.940;2022-11-12T08:47:12;21.63;;;10.73;;
40254;SDS011;25973;52.368;4.940;2022-11-12T08:49:37;20.85;;;11.38;;
40254;SDS011;25973;52.368;4.940;2022-11-12T08:52:03;20.48;;;11.13;;
40254;SDS011;25973;52.368;4.940;2022-11-12T08:54:29;23.73;;;11.27;;
40254;SDS011;25973;52.368;4.940;2022-11-12T08:56:54;32.25;;;14.30;;
40254;SDS011;25973;52.368;4.940;2022-11-12T08:59:20;23.55;;;11.05;;
40254;SDS011;25973;52.368;4.940;2022-11-12T09:01:45;22.58;;;10.38;;
40254;SDS011;25973;52.368;4.940;2022-11-12T09:04:11;21.48;;;9.52;;
40254;SDS011;25973;52.368;4.940;2022-11-12T09:06:37;15.95;;;8.68;;
40254;SDS011;25973;52.368;4.940;2022-11-12T09:09:02;17.50;;;8.60;;
40254;SDS011;25973;52.368;4.940;2022-11-12T09:11:28;24.45;;;11.35;;
40254;SDS011;25973;52.368;4.940;2022-11-12T09:13:54;16.52;;;7.90;;
40254;SDS011;25973;52.368;4.940;2022-11-12T09:16:19;21.35;;;10.90;;
40254;SDS011;25973;52.368;4.940;2022-11-12T09:18:45;23.65;;;11.18;;
40254;SDS011;25973;52.368;4.940;2022-11-12T09:21:11;18.50;;;9.43;;
40254;SDS011;25973;52.368;4.940;2022-11-12T09:23:38;14.20;;;7.93;;
40254;SDS011;25973;52.368;4.940;2022-11-12T09:26:04;14.45;;;7.75;;
40254;SDS011;25973;52.368;4.940;2022-11-12T09:28:30;11.32;;;6.90;;
40254;SDS011;25973;52.368;4.940;2022-11-12T09:30:56;12.93;;;7.13;;
40254;SDS011;25973;52.368;4.940;2022-11-12T09:33:26;17.05;;;7.07;;
40254;SDS011;25973;52.368;4.940;2022-11-12T09:35:54;12.38;;;6.85;;
40254;SDS011;25973;52.368;4.940;2022-11-12T09:38:21;11.10;;;6.70;;
40254;SDS011;25973;52.368;4.940;2022-11-12T09:43:26;14.32;;;6.82;;
40254;SDS011;25973;52.368;4.940;2022-11-12T09:46:02;10.05;;;5.40;;
40254;SDS011;25973;52.368;4.940;2022-11-12T09:48:38;13.38;;;6.55;;
40254;SDS011;25973;52.368;4.940;2022-11-12T09:51:22;12.20;;;5.63;;
40254;SDS011;25973;52.368;4.940;2022-11-12T09:53:55;11.50;;;6.40;;
40254;SDS011;25973;52.368;4.940;2022-11-12T09:56:22;10.25;;;6.32;;
40254;SDS011;25973;52.368;4.940;2022-11-12T09:58:49;10.38;;;6.20;;
40254;SDS011;25973;52.368;4.940;2022-11-12T10:01:20;14.57;;;5.78;;
40254;SDS011;25973;52.368;4.940;2022-11-12T10:23:56;8.27;;;4.97;;
40254;SDS011;25973;52.368;4.940;2022-11-12T10:26:23;7.93;;;4.65;;
40254;SDS011;25973;52.368;4.940;2022-11-12T10:29:07;7.65;;;4.30;;
40254;SDS011;25973;52.368;4.940;2022-11-12T10:31:42;7.53;;;4.18;;
40254;SDS011;25973;52.368;4.940;2022-11-12T10:36:44;9.18;;;4.00;;
40254;SDS011;25973;52.368;4.940;2022-11-12T10:39:34;11.70;;;4.43;;
40254;SDS011;25973;52.368;4.940;2022-11-12T10:42:06;9.32;;;5.72;;
40254;SDS011;25973;52.368;4.940;2022-11-12T10:44:34;10.85;;;5.57;;
40254;SDS011;25973;52.368;4.940;2022-11-12T10:49:58;10.93;;;4.53;;
40254;SDS011;25973;52.368;4.940;2022-11-12T10:52:29;8.77;;;5.18;;
40254;SDS011;25973;52.368;4.940;2022-11-12T10:55:14;7.90;;;4.80;;
40254;SDS011;25973;52.368;4.940;2022-11-12T10:57:45;9.47;;;5.13;;
40254;SDS011;25973;52.368;4.940;2022-11-12T11:02:36;9.02;;;4.88;;
40254;SDS011;25973;52.368;4.940;2022-11-12T11:05:31;7.55;;;5.03;;
40254;SDS011;25973;52.368;4.940;2022-11-12T11:08:32;15.88;;;5.85;;
40254;SDS011;25973;52.368;4.940;2022-11-12T11:13:45;9.43;;;4.82;;
40254;SDS011;25973;52.368;4.940;2022-11-12T11:16:13;9.43;;;5.15;;
40254;SDS011;25973;52.368;4.940;2022-11-12T11:18:41;14.15;;;8.52;;
40254;SDS011;25973;52.368;4.940;2022-11-12T11:23:56;8.02;;;4.85;;
40254;SDS011;25973;52.368;4.940;2022-11-12T11:26:39;8.57;;;4.97;;
40254;SDS011;25973;52.368;4.940;2022-11-12T11:40:55;7.40;;;4.32;;
40254;SDS011;25973;52.368;4.940;2022-11-12T11:43:41;7.57;;;3.60;;
40254;SDS011;25973;52.368;4.940;2022-11-12T11:52:11;10.98;;;4.72;;
40254;SDS011;25973;52.368;4.940;2022-11-12T12:00:27;9.60;;;4.72;;
40254;SDS011;25973;52.368;4.940;2022-11-12T12:06:08;8.20;;;3.70;;
40254;SDS011;25973;52.368;4.940;2022-11-12T12:08:53;5.90;;;2.95;;
40254;SDS011;25973;52.368;4.940;2022-11-12T12:11:31;8.30;;;3.20;;
40254;SDS011;25973;52.368;4.940;2022-11-12T12:14:14;8.10;;;3.40;;
40254;SDS011;25973;52.368;4.940;2022-11-12T12:16:52;5.05;;;2.70;;
40254;SDS011;25973;52.368;4.940;2022-11-12T12:21:59;8.82;;;2.85;;
40254;SDS011;25973;52.368;4.940;2022-11-12T12:24:33;4.10;;;2.70;;
40254;SDS011;25973;52.368;4.940;2022-11-12T12:27:17;7.15;;;2.95;;
40254;SDS011;25973;52.368;4.940;2022-11-12T12:29:54;5.47;;;2.85;;
40254;SDS011;25973;52.368;4.940;2022-11-12T12:35:39;9.43;;;4.35;;
40254;SDS011;25973;52.368;4.940;2022-11-12T12:41:28;9.07;;;4.10;;
40254;SDS011;25973;52.368;4.940;2022-11-12T12:44:01;7.38;;;2.90;;
40254;SDS011;25973;52.368;4.940;2022-11-12T12:46:29;4.57;;;2.20;;
40254;SDS011;25973;52.368;4.940;2022-11-12T12:48:58;3.85;;;1.77;;
40254;SDS011;25973;52.368;4.940;2022-11-12T12:51:28;3.85;;;2.15;;
40254;SDS011;25973;52.368;4.940;2022-11-12T12:53:55;4.80;;;2.20;;
40254;SDS011;25973;52.368;4.940;2022-11-12T12:58:46;6.00;;;2.15;;
40254;SDS011;25973;52.368;4.940;2022-11-12T13:06:08;3.28;;;2.22;;
40254;SDS011;25973;52.368;4.940;2022-11-12T13:08:54;3.10;;;1.45;;
40254;SDS011;25973;52.368;4.940;2022-11-12T13:19:42;7.88;;;4.22;;
40254;SDS011;25973;52.368;4.940;2022-11-12T13:30:07;10.80;;;3.67;;
40254;SDS011;25973;52.368;4.940;2022-11-12T13:32:38;7.57;;;3.53;;
40254;SDS011;25973;52.368;4.940;2022-11-12T13:35:19;5.53;;;3.67;;
40254;SDS011;25973;52.368;4.940;2022-11-12T13:48:35;6.70;;;3.58;;
40254;SDS011;25973;52.368;4.940;2022-11-12T13:54:02;6.55;;;2.95;;
40254;SDS011;25973;52.368;4.940;2022-11-12T13:59:48;7.18;;;2.72;;
40254;SDS011;25973;52.368;4.940;2022-11-12T14:02:24;4.88;;;3.00;;
40254;SDS011;25973;52.368;4.940;2022-11-12T14:04:51;4.18;;;2.53;;
40254;SDS011;25973;52.368;4.940;2022-11-12T14:10:25;6.63;;;2.78;;
40254;SDS011;25973;52.368;4.940;2022-11-12T14:15:59;6.95;;;3.30;;
40254;SDS011;25973;52.368;4.940;2022-11-12T14:18:39;7.18;;;3.15;;
40254;SDS011;25973;52.368;4.940;2022-11-12T14:21:16;9.50;;;2.92;;
40254;SDS011;25973;52.368;4.940;2022-11-12T14:23:44;6.95;;;3.17;;
40254;SDS011;25973;52.368;4.940;2022-11-12T14:26:11;5.35;;;3.05;;
40254;SDS011;25973;52.368;4.940;2022-11-12T14:28:39;5.75;;;2.90;;
40254;SDS011;25973;52.368;4.940;2022-11-12T14:31:19;5.72;;;3.25;;
40254;SDS011;25973;52.368;4.940;2022-11-12T14:33:48;8.40;;;3.60;;
40254;SDS011;25973;52.368;4.940;2022-11-12T14:36:14;7.43;;;3.97;;
40254;SDS011;25973;52.368;4.940;2022-11-12T14:38:44;7.93;;;3.90;;
40254;SDS011;25973;52.368;4.940;2022-11-12T14:41:20;8.23;;;4.35;;
40254;SDS011;25973;52.368;4.940;2022-11-12T14:43:58;12.05;;;4.38;;
40254;SDS011;25973;52.368;4.940;2022-11-12T14:46:37;13.40;;;4.88;;
40254;SDS011;25973;52.368;4.940;2022-11-12T14:54:46;12.50;;;4.75;;
40254;SDS011;25973;52.368;4.940;2022-11-12T14:57:32;7.95;;;4.97;;
40254;SDS011;25973;52.368;4.940;2022-11-12T14:59:58;8.77;;;4.95;;
40254;SDS011;25973;52.368;4.940;2022-11-12T15:02:24;7.60;;;4.93;;
40254;SDS011;25973;52.368;4.940;2022-11-12T15:05:03;9.52;;;4.55;;
40254;SDS011;25973;52.368;4.940;2022-11-12T15:07:49;10.27;;;5.68;;
40254;SDS011;25973;52.368;4.940;2022-11-12T15:13:04;7.55;;;4.85;;
40254;SDS011;25973;52.368;4.940;2022-11-12T15:15:39;10.85;;;5.90;;
40254;SDS011;25973;52.368;4.940;2022-11-12T15:18:15;11.50;;;6.43;;
40254;SDS011;25973;52.368;4.940;2022-11-12T15:23:35;10.20;;;6.07;;
40254;SDS011;25973;52.368;4.940;2022-11-12T15:26:12;9.18;;;5.60;;
40254;SDS011;25973;52.368;4.940;2022-11-12T15:28:59;11.98;;;5.97;;
40254;SDS011;25973;52.368;4.940;2022-11-12T15:31:26;9.55;;;5.20;;
40254;SDS011;25973;52.368;4.940;2022-11-12T15:33:51;14.38;;;5.65;;
40254;SDS011;25973;52.368;4.940;2022-11-12T15:36:18;14.80;;;6.35;;
40254;SDS011;25973;52.368;4.940;2022-11-12T15:38:49;11.15;;;5.70;;
40254;SDS011;25973;52.368;4.940;2022-11-12T15:41:25;10.80;;;5.72;;
40254;SDS011;25973;52.368;4.940;2022-11-12T15:43:53;16.50;;;6.22;;
40254;SDS011;25973;52.368;4.940;2022-11-12T15:46:19;13.38;;;5.65;;
40254;SDS011;25973;52.368;4.940;2022-11-12T15:48:45;13.00;;;6.22;;
40254;SDS011;25973;52.368;4.940;2022-11-12T15:51:15;11.38;;;6.82;;
40254;SDS011;25973;52.368;4.940;2022-11-12T15:53:41;23.27;;;6.50;;
40254;SDS011;25973;52.368;4.940;2022-11-12T15:56:10;12.40;;;5.80;;
40254;SDS011;25973;52.368;4.940;2022-11-12T15:58:41;10.38;;;6.47;;
40254;SDS011;25973;52.368;4.940;2022-11-12T16:01:09;13.82;;;6.90;;
40254;SDS011;25973;52.368;4.940;2022-11-12T16:03:36;14.13;;;7.25;;
40254;SDS011;25973;52.368;4.940;2022-11-12T16:06:01;16.33;;;7.13;;
40254;SDS011;25973;52.368;4.940;2022-11-12T16:08:28;15.68;;;6.68;;
40254;SDS011;25973;52.368;4.940;2022-11-12T16:10:54;12.35;;;6.72;;
40254;SDS011;25973;52.368;4.940;2022-11-12T16:13:24;12.82;;;6.60;;
40254;SDS011;25973;52.368;4.940;2022-11-12T16:15:52;14.02;;;7.60;;
40254;SDS011;25973;52.368;4.940;2022-11-12T16:18:18;13.10;;;6.75;;
40254;SDS011;25973;52.368;4.940;2022-11-12T16:20:43;11.90;;;6.30;;
40254;SDS011;25973;52.368;4.940;2022-11-12T16:23:09;16.20;;;7.45;;
40254;SDS011;25973;52.368;4.940;2022-11-12T16:25:35;16.17;;;6.95;;
40254;SDS011;25973;52.368;4.940;2022-11-12T16:28:02;20.50;;;9.40;;
40254;SDS011;25973;52.368;4.940;2022-11-12T16:30:32;16.35;;;7.85;;
40254;SDS011;25973;52.368;4.940;2022-11-12T16:32:58;14.77;;;6.72;;
40254;SDS011;25973;52.368;4.940;2022-11-12T16:35:26;16.17;;;7.93;;
40254;SDS011;25973;52.368;4.940;2022-11-12T16:37:53;21.25;;;7.15;;
40254;SDS011;25973;52.368;4.940;2022-11-12T16:40:21;13.10;;;6.78;;
40254;SDS011;25973;52.368;4.940;2022-11-12T16:42:48;15.07;;;7.18;;
40254;SDS011;25973;52.368;4.940;2022-11-12T16:45:15;11.00;;;7.18;;
40254;SDS011;25973;52.368;4.940;2022-11-12T16:47:43;13.52;;;7.95;;
40254;SDS011;25973;52.368;4.940;2022-11-12T16:50:12;16.63;;;8.27;;
40254;SDS011;25973;52.368;4.940;2022-11-12T16:52:38;12.18;;;7.55;;
40254;SDS011;25973;52.368;4.940;2022-11-12T16:55:04;14.70;;;7.07;;
40254;SDS011;25973;52.368;4.940;2022-11-12T16:57:30;12.43;;;7.30;;
40254;SDS011;25973;52.368;4.940;2022-11-12T16:59:55;12.52;;;7.93;;